METAR Data
IDs: Format: Raw Decoded Include TAF

Data at: 1937 UTC 18 Aug 2018

Region: TOP
KATL 181852Z 24010KT 10SM SCT030TCU BKN060 BKN150 BKN250 30/22 A3002 RMK AO2 RAB35E45 SLP154 TCU OHD & DSNT N-NE & SW & NW P0000 T03000222

KBOS 181854Z 33011KT 10SM FEW011 SCT050 BKN080 OVC200 27/21 A2977 RMK AO2 WSHFT 1800 LTG DSNT E SLP079 SHRA NW-E T02670211 $

KBWI 181854Z 26010KT 10SM SCT040TCU SCT080 BKN140 BKN170 BKN210 29/22 A2984 RMK AO2 SLP104 CB DSNT NW AND N MOV NE TCU S-SW AND DSNT NW-N T02890217

KCLE 181851Z 01014KT 10SM FEW020 FEW250 27/19 A2997 RMK AO2 SLP144 T02670194 $

KCLT 181852Z 20013KT 10SM SCT038TCU SCT150 BKN250 31/23 A2998 RMK AO2 SLP141 TCU SE-S AND NW-N AND DSNT SW-W T03060233 $

KCVG 181852Z 34009G16KT 10SM SCT030 BKN050 BKN070 28/21 A2994 RMK AO2 RAB09E30 SLP127 P0000 T02780211 $

KDCA 181852Z 25010KT 10SM FEW035 BKN150 BKN250 31/21 A2986 RMK AO2 SLP112 T03110206

KDEN 181924Z 33013KT 9SM -RA FEW041 SCT055 OVC075 19/12 A3019 RMK AO2 LTG DSNT SE PRESFR P0001 T01940122 $

KDFW 181853Z 24007G15KT 10SM FEW300 37/21 A2994 RMK AO2 SLP128 T03670206

KDTW 181853Z 03006KT 10SM BKN045 BKN085 OVC250 29/18 A2996 RMK AO2 SLP140 T02940178

KEWR 181851Z 25012KT 10SM SCT032 SCT065 BKN150 BKN250 31/22 A2977 RMK AO2 SLP081 TCU DSNT E T03060222 $

KFLL 181853Z 12009G18KT 10SM FEW025 FEW060 BKN180 BKN250 30/27 A3008 RMK AO2 LTG DSNT NW SLP185 CB DSNT NW MOV W T03000267

KIAD 181852Z 23007KT 10SM FEW032 SCT070 BKN090 28/22 A2988 RMK AO2 RAB35E46 SLP114 P0000 T02780222 $

KIAH 181853Z 16005KT 10SM SCT047 34/24 A2999 RMK AO2 SLP155 T03440239

KJFK 181851Z 20010KT 10SM SCT025 BKN100 BKN250 30/24 A2978 RMK AO2 RAE1759 SLP084 TCU DSNT NE P0000 T03000244

KLAS 181856Z 15005KT 10SM FEW120 37/14 A3002 RMK AO2 SLP132 T03720144

KLAX 181853Z 25007KT 10SM SCT019 SCT026 25/19 A3007 RMK AO2 SLP179 T02500189

KLGA 181851Z 27011KT 10SM -RA SCT035 SCT050 BKN250 30/21 A2976 RMK AO2 RAB50 SLP079 P0000 T03000211 $

KMCO 181853Z 00000KT 10SM SCT050 SCT250 33/20 A3008 RMK AO2 SLP184 CB DSNT E-S W T03280200 $

KMDW 181853Z 04008KT 10SM SCT030 SCT034 27/19 A3001 RMK AO2 SLP151 T02720189

KMEM 181854Z 27007KT 10SM SCT030 BKN038 29/22 A2999 RMK AO2 SLP150 T02940222

KMIA 181853Z 10012KT 10SM SCT037 BKN250 32/23 A3008 RMK AO2 LTG DSNT N SLP185 CB DSNT N T03220233

KMSP 181853Z 08004KT 8SM FEW045 BKN300 29/17 A3004 RMK AO2 SLP166 T02890167

KORD 181851Z 03008KT 10SM SCT026 26/18 A3002 RMK AO2 SLP160 T02610183

KPDX 181853Z 27006KT 10SM CLR 21/11 A3018 RMK AO2 SLP221 T02110111

KPHL 181854Z 23011KT 10SM SCT044TCU BKN250 31/22 A2981 RMK AO2 SLP092 TCU N T03110217 $

KPHX 181851Z 00000KT 10SM FEW060 SCT180 SCT250 38/18 A2995 RMK AO2 SLP118 T03780183

KPIT 181851Z 30008KT 10SM SCT030 SCT250 27/18 A2991 RMK AO2 SLP126 MDT CU T02670183

KSAN 181851Z 28009KT 9SM BKN015 26/20 A3007 RMK AO2 SLP183 T02560200

KSEA 181853Z 26006KT 10SM CLR 21/12 A3021 RMK AO2 SLP236 T02110122

KSFO 181856Z 30011KT 10SM FEW009 20/12 A3005 RMK AO2 SLP177 T02000117

KSLC 181854Z 20005KT 10SM FEW100 SCT120 BKN220 28/10 A3020 RMK AO2 SLP170 TCU DSNT SE T02830100

KSTL 181851Z 04005KT 10SM BKN033 OVC250 28/20 A2999 RMK AO2 SLP145 T02830200

KTPA 181853Z 22007KT 10SM BKN045TCU BKN300 33/23 A3008 RMK AO2 SLP185 TCU ALQDS T03280228